sensor_id;sensor_type;location;lat;lon;timestamp;P1;durP1;ratioP1;P2;durP2;ratioP2
48911;SDS011;34722;52.108;5.044;2023-11-18T00:00:00;95.40;;;38.33;;
48911;SDS011;34722;52.108;5.044;2023-11-18T00:02:26;100.47;;;38.63;;
48911;SDS011;34722;52.108;5.044;2023-11-18T00:04:52;97.00;;;39.72;;
48911;SDS011;34722;52.108;5.044;2023-11-18T00:07:18;106.07;;;40.25;;
48911;SDS011;34722;52.108;5.044;2023-11-18T00:09:43;91.18;;;37.47;;
48911;SDS011;34722;52.108;5.044;2023-11-18T00:12:11;95.47;;;36.55;;
48911;SDS011;34722;52.108;5.044;2023-11-18T00:14:37;92.03;;;38.83;;
48911;SDS011;34722;52.108;5.044;2023-11-18T00:17:03;92.68;;;38.22;;
48911;SDS011;34722;52.108;5.044;2023-11-18T00:19:29;80.60;;;37.20;;
48911;SDS011;34722;52.108;5.044;2023-11-18T00:21:55;84.13;;;36.75;;
48911;SDS011;34722;52.108;5.044;2023-11-18T00:24:20;84.40;;;37.60;;
48911;SDS011;34722;52.108;5.044;2023-11-18T00:26:46;75.10;;;35.38;;
48911;SDS011;34722;52.108;5.044;2023-11-18T00:29:11;79.07;;;35.53;;
48911;SDS011;34722;52.108;5.044;2023-11-18T00:31:37;78.47;;;33.90;;
48911;SDS011;34722;52.108;5.044;2023-11-18T00:34:03;79.28;;;35.38;;
48911;SDS011;34722;52.108;5.044;2023-11-18T00:36:28;78.32;;;36.10;;
48911;SDS011;34722;52.108;5.044;2023-11-18T00:38:54;82.35;;;36.28;;
48911;SDS011;34722;52.108;5.044;2023-11-18T00:41:20;72.40;;;32.90;;
48911;SDS011;34722;52.108;5.044;2023-11-18T00:43:46;70.22;;;33.03;;
48911;SDS011;34722;52.108;5.044;2023-11-18T00:46:12;74.65;;;34.03;;
48911;SDS011;34722;52.108;5.044;2023-11-18T00:48:37;66.93;;;33.20;;
48911;SDS011;34722;52.108;5.044;2023-11-18T00:51:03;74.18;;;32.80;;
48911;SDS011;34722;52.108;5.044;2023-11-18T00:53:30;65.53;;;33.78;;
48911;SDS011;34722;52.108;5.044;2023-11-18T00:55:56;72.25;;;32.65;;
48911;SDS011;34722;52.108;5.044;2023-11-18T00:58:21;79.20;;;35.33;;
48911;SDS011;34722;52.108;5.044;2023-11-18T01:00:47;67.00;;;33.53;;
48911;SDS011;34722;52.108;5.044;2023-11-18T01:03:13;73.80;;;34.50;;
48911;SDS011;34722;52.108;5.044;2023-11-18T01:05:38;72.30;;;32.95;;
48911;SDS011;34722;52.108;5.044;2023-11-18T01:08:04;73.88;;;34.15;;
48911;SDS011;34722;52.108;5.044;2023-11-18T01:10:30;73.80;;;34.70;;
48911;SDS011;34722;52.108;5.044;2023-11-18T01:12:56;76.47;;;34.50;;
48911;SDS011;34722;52.108;5.044;2023-11-18T01:15:23;69.60;;;32.67;;
48911;SDS011;34722;52.108;5.044;2023-11-18T01:17:48;77.90;;;33.42;;
48911;SDS011;34722;52.108;5.044;2023-11-18T01:20:14;95.60;;;34.67;;
48911;SDS011;34722;52.108;5.044;2023-11-18T01:22:46;81.72;;;36.75;;
48911;SDS011;34722;52.108;5.044;2023-11-18T01:25:13;84.95;;;34.67;;
48911;SDS011;34722;52.108;5.044;2023-11-18T01:27:42;79.22;;;34.20;;
48911;SDS011;34722;52.108;5.044;2023-11-18T01:30:07;70.00;;;33.15;;
48911;SDS011;34722;52.108;5.044;2023-11-18T01:32:35;77.97;;;34.63;;
48911;SDS011;34722;52.108;5.044;2023-11-18T01:35:00;73.38;;;34.13;;
48911;SDS011;34722;52.108;5.044;2023-11-18T01:37:26;70.70;;;33.60;;
48911;SDS011;34722;52.108;5.044;2023-11-18T01:39:51;76.68;;;34.45;;
48911;SDS011;34722;52.108;5.044;2023-11-18T01:42:17;72.93;;;34.50;;
48911;SDS011;34722;52.108;5.044;2023-11-18T01:44:42;76.75;;;37.33;;
48911;SDS011;34722;52.108;5.044;2023-11-18T01:47:08;67.07;;;34.55;;
48911;SDS011;34722;52.108;5.044;2023-11-18T01:49:38;62.25;;;32.08;;
48911;SDS011;34722;52.108;5.044;2023-11-18T01:52:05;71.55;;;34.17;;
48911;SDS011;34722;52.108;5.044;2023-11-18T01:54:35;68.80;;;31.63;;
48911;SDS011;34722;52.108;5.044;2023-11-18T01:57:02;66.07;;;33.03;;
48911;SDS011;34722;52.108;5.044;2023-11-18T01:59:31;67.53;;;32.28;;
48911;SDS011;34722;52.108;5.044;2023-11-18T02:01:58;68.57;;;33.53;;
48911;SDS011;34722;52.108;5.044;2023-11-18T02:04:24;73.05;;;31.02;;
48911;SDS011;34722;52.108;5.044;2023-11-18T02:06:50;66.13;;;32.20;;
48911;SDS011;34722;52.108;5.044;2023-11-18T02:09:17;72.53;;;31.65;;
48911;SDS011;34722;52.108;5.044;2023-11-18T02:11:52;70.13;;;32.38;;
48911;SDS011;34722;52.108;5.044;2023-11-18T02:14:21;69.47;;;30.02;;
48911;SDS011;34722;52.108;5.044;2023-11-18T02:16:52;65.00;;;30.73;;
48911;SDS011;34722;52.108;5.044;2023-11-18T02:19:21;70.10;;;33.63;;
48911;SDS011;34722;52.108;5.044;2023-11-18T02:21:49;58.80;;;31.23;;
48911;SDS011;34722;52.108;5.044;2023-11-18T02:24:28;56.35;;;29.48;;
48911;SDS011;34722;52.108;5.044;2023-11-18T02:27:06;62.78;;;31.40;;
48911;SDS011;34722;52.108;5.044;2023-11-18T02:29:36;65.10;;;32.63;;
48911;SDS011;34722;52.108;5.044;2023-11-18T02:34:56;60.67;;;32.05;;
48911;SDS011;34722;52.108;5.044;2023-11-18T02:37:39;62.50;;;31.23;;
48911;SDS011;34722;52.108;5.044;2023-11-18T02:40:07;62.47;;;30.55;;
48911;SDS011;34722;52.108;5.044;2023-11-18T02:42:39;67.20;;;31.85;;
48911;SDS011;34722;52.108;5.044;2023-11-18T02:45:07;64.00;;;33.38;;
48911;SDS011;34722;52.108;5.044;2023-11-18T02:47:37;70.00;;;32.83;;
48911;SDS011;34722;52.108;5.044;2023-11-18T02:50:04;63.35;;;31.25;;
48911;SDS011;34722;52.108;5.044;2023-11-18T02:52:36;66.22;;;32.88;;
48911;SDS011;34722;52.108;5.044;2023-11-18T02:55:03;62.83;;;31.90;;
48911;SDS011;34722;52.108;5.044;2023-11-18T02:57:31;68.25;;;33.90;;
48911;SDS011;34722;52.108;5.044;2023-11-18T02:59:57;66.95;;;34.13;;
48911;SDS011;34722;52.108;5.044;2023-11-18T03:02:25;73.00;;;32.83;;
48911;SDS011;34722;52.108;5.044;2023-11-18T03:04:52;61.92;;;32.50;;
48911;SDS011;34722;52.108;5.044;2023-11-18T03:07:18;62.25;;;33.28;;
48911;SDS011;34722;52.108;5.044;2023-11-18T03:09:44;61.47;;;33.45;;
48911;SDS011;34722;52.108;5.044;2023-11-18T03:12:11;62.58;;;33.05;;
48911;SDS011;34722;52.108;5.044;2023-11-18T03:14:37;58.28;;;33.58;;
48911;SDS011;34722;52.108;5.044;2023-11-18T03:17:03;56.88;;;31.33;;
48911;SDS011;34722;52.108;5.044;2023-11-18T03:19:31;59.83;;;31.02;;
48911;SDS011;34722;52.108;5.044;2023-11-18T03:21:59;62.72;;;31.42;;
48911;SDS011;34722;52.108;5.044;2023-11-18T03:24:25;58.67;;;30.50;;
48911;SDS011;34722;52.108;5.044;2023-11-18T03:26:51;60.95;;;31.58;;
48911;SDS011;34722;52.108;5.044;2023-11-18T03:29:16;56.90;;;29.95;;
48911;SDS011;34722;52.108;5.044;2023-11-18T03:31:42;70.63;;;33.88;;
48911;SDS011;34722;52.108;5.044;2023-11-18T03:34:09;60.47;;;30.23;;
48911;SDS011;34722;52.108;5.044;2023-11-18T03:36:35;56.10;;;28.33;;
48911;SDS011;34722;52.108;5.044;2023-11-18T03:39:00;53.13;;;27.45;;
48911;SDS011;34722;52.108;5.044;2023-11-18T03:41:26;49.88;;;27.33;;
48911;SDS011;34722;52.108;5.044;2023-11-18T03:43:52;56.63;;;27.58;;
48911;SDS011;34722;52.108;5.044;2023-11-18T03:46:17;49.13;;;27.17;;
48911;SDS011;34722;52.108;5.044;2023-11-18T03:48:44;55.92;;;28.77;;
48911;SDS011;34722;52.108;5.044;2023-11-18T03:51:09;60.03;;;28.58;;
48911;SDS011;34722;52.108;5.044;2023-11-18T03:53:35;47.97;;;26.60;;
48911;SDS011;34722;52.108;5.044;2023-11-18T03:56:00;50.72;;;26.70;;
48911;SDS011;34722;52.108;5.044;2023-11-18T03:58:27;51.78;;;27.58;;
48911;SDS011;34722;52.108;5.044;2023-11-18T04:00:53;56.28;;;24.52;;
48911;SDS011;34722;52.108;5.044;2023-11-18T04:03:19;52.55;;;27.30;;
48911;SDS011;34722;52.108;5.044;2023-11-18T04:05:44;53.17;;;27.33;;
48911;SDS011;34722;52.108;5.044;2023-11-18T04:08:10;53.92;;;26.17;;
48911;SDS011;34722;52.108;5.044;2023-11-18T04:10:36;52.83;;;24.92;;
48911;SDS011;34722;52.108;5.044;2023-11-18T04:13:02;43.22;;;24.65;;
48911;SDS011;34722;52.108;5.044;2023-11-18T04:15:28;46.72;;;24.77;;
48911;SDS011;34722;52.108;5.044;2023-11-18T04:17:53;49.85;;;23.88;;
48911;SDS011;34722;52.108;5.044;2023-11-18T04:20:19;44.92;;;24.95;;
48911;SDS011;34722;52.108;5.044;2023-11-18T04:22:45;50.28;;;26.40;;
48911;SDS011;34722;52.108;5.044;2023-11-18T04:25:10;48.20;;;24.75;;
48911;SDS011;34722;52.108;5.044;2023-11-18T04:27:40;45.67;;;25.00;;
48911;SDS011;34722;52.108;5.044;2023-11-18T04:30:05;46.20;;;23.35;;
48911;SDS011;34722;52.108;5.044;2023-11-18T04:32:31;45.88;;;24.20;;
48911;SDS011;34722;52.108;5.044;2023-11-18T04:35:00;47.42;;;25.45;;
48911;SDS011;34722;52.108;5.044;2023-11-18T04:37:31;47.63;;;23.67;;
48911;SDS011;34722;52.108;5.044;2023-11-18T04:40:03;44.63;;;25.27;;
48911;SDS011;34722;52.108;5.044;2023-11-18T04:42:31;47.47;;;25.02;;
48911;SDS011;34722;52.108;5.044;2023-11-18T04:44:57;49.78;;;23.77;;
48911;SDS011;34722;52.108;5.044;2023-11-18T04:47:22;44.72;;;22.90;;
48911;SDS011;34722;52.108;5.044;2023-11-18T04:49:50;45.58;;;22.65;;
48911;SDS011;34722;52.108;5.044;2023-11-18T04:52:16;41.70;;;22.65;;
48911;SDS011;34722;52.108;5.044;2023-11-18T04:54:41;39.72;;;23.00;;
48911;SDS011;34722;52.108;5.044;2023-11-18T04:57:07;46.05;;;23.27;;
48911;SDS011;34722;52.108;5.044;2023-11-18T04:59:34;45.47;;;21.42;;
48911;SDS011;34722;52.108;5.044;2023-11-18T05:01:59;38.88;;;21.08;;
48911;SDS011;34722;52.108;5.044;2023-11-18T05:04:27;43.72;;;21.50;;
48911;SDS011;34722;52.108;5.044;2023-11-18T05:06:53;38.17;;;19.92;;
48911;SDS011;34722;52.108;5.044;2023-11-18T05:09:18;41.83;;;19.88;;
48911;SDS011;34722;52.108;5.044;2023-11-18T05:11:44;39.58;;;20.63;;
48911;SDS011;34722;52.108;5.044;2023-11-18T05:14:10;41.97;;;21.63;;
48911;SDS011;34722;52.108;5.044;2023-11-18T05:16:36;44.80;;;23.38;;
48911;SDS011;34722;52.108;5.044;2023-11-18T05:19:02;43.28;;;22.70;;
48911;SDS011;34722;52.108;5.044;2023-11-18T05:21:27;55.63;;;22.38;;
48911;SDS011;34722;52.108;5.044;2023-11-18T05:23:53;49.03;;;24.00;;
48911;SDS011;34722;52.108;5.044;2023-11-18T05:26:19;44.05;;;21.33;;
48911;SDS011;34722;52.108;5.044;2023-11-18T05:28:45;46.40;;;21.98;;
48911;SDS011;34722;52.108;5.044;2023-11-18T05:31:10;49.20;;;21.67;;
48911;SDS011;34722;52.108;5.044;2023-11-18T05:33:36;51.03;;;21.92;;
48911;SDS011;34722;52.108;5.044;2023-11-18T05:36:02;46.65;;;20.95;;
48911;SDS011;34722;52.108;5.044;2023-11-18T05:38:30;52.22;;;22.60;;
48911;SDS011;34722;52.108;5.044;2023-11-18T05:40:59;48.03;;;20.83;;
48911;SDS011;34722;52.108;5.044;2023-11-18T05:43:27;53.03;;;21.67;;
48911;SDS011;34722;52.108;5.044;2023-11-18T05:46:05;47.63;;;22.60;;
48911;SDS011;34722;52.108;5.044;2023-11-18T05:48:41;49.60;;;21.35;;
48911;SDS011;34722;52.108;5.044;2023-11-18T05:51:07;47.97;;;22.20;;
48911;SDS011;34722;52.108;5.044;2023-11-18T05:53:33;49.75;;;22.42;;
48911;SDS011;34722;52.108;5.044;2023-11-18T05:55:58;48.00;;;22.67;;
48911;SDS011;34722;52.108;5.044;2023-11-18T05:58:24;54.83;;;19.85;;
48911;SDS011;34722;52.108;5.044;2023-11-18T06:00:49;51.72;;;23.90;;
48911;SDS011;34722;52.108;5.044;2023-11-18T06:03:15;46.10;;;22.50;;
48911;SDS011;34722;52.108;5.044;2023-11-18T06:05:40;39.25;;;21.05;;
48911;SDS011;34722;52.108;5.044;2023-11-18T06:08:06;44.70;;;20.75;;
48911;SDS011;34722;52.108;5.044;2023-11-18T06:10:33;43.33;;;20.92;;
48911;SDS011;34722;52.108;5.044;2023-11-18T06:12:59;44.03;;;22.05;;
48911;SDS011;34722;52.108;5.044;2023-11-18T06:15:25;45.67;;;23.05;;
48911;SDS011;34722;52.108;5.044;2023-11-18T06:17:50;55.20;;;26.13;;
48911;SDS011;34722;52.108;5.044;2023-11-18T06:20:16;52.55;;;22.40;;
48911;SDS011;34722;52.108;5.044;2023-11-18T06:22:42;47.90;;;22.55;;
48911;SDS011;34722;52.108;5.044;2023-11-18T06:25:08;46.38;;;22.60;;
48911;SDS011;34722;52.108;5.044;2023-11-18T06:27:34;41.38;;;20.58;;
48911;SDS011;34722;52.108;5.044;2023-11-18T06:29:59;47.58;;;22.75;;
48911;SDS011;34722;52.108;5.044;2023-11-18T06:32:25;48.88;;;20.75;;
48911;SDS011;34722;52.108;5.044;2023-11-18T06:34:51;48.60;;;22.05;;
48911;SDS011;34722;52.108;5.044;2023-11-18T06:37:18;48.95;;;22.50;;
48911;SDS011;34722;52.108;5.044;2023-11-18T06:39:44;50.83;;;23.02;;
48911;SDS011;34722;52.108;5.044;2023-11-18T06:42:12;52.30;;;23.85;;
48911;SDS011;34722;52.108;5.044;2023-11-18T06:44:39;48.40;;;22.20;;
48911;SDS011;34722;52.108;5.044;2023-11-18T06:47:05;49.72;;;22.75;;
48911;SDS011;34722;52.108;5.044;2023-11-18T06:49:31;47.58;;;21.38;;
48911;SDS011;34722;52.108;5.044;2023-11-18T06:51:59;50.58;;;22.55;;
48911;SDS011;34722;52.108;5.044;2023-11-18T06:54:28;50.47;;;23.67;;
48911;SDS011;34722;52.108;5.044;2023-11-18T06:56:58;49.83;;;21.25;;
48911;SDS011;34722;52.108;5.044;2023-11-18T06:59:26;49.83;;;23.25;;
48911;SDS011;34722;52.108;5.044;2023-11-18T07:01:52;46.90;;;21.75;;
48911;SDS011;34722;52.108;5.044;2023-11-18T07:04:17;43.88;;;22.70;;
48911;SDS011;34722;52.108;5.044;2023-11-18T07:06:44;49.10;;;22.45;;
48911;SDS011;34722;52.108;5.044;2023-11-18T07:09:09;50.97;;;24.85;;
48911;SDS011;34722;52.108;5.044;2023-11-18T07:11:41;48.60;;;23.13;;
48911;SDS011;34722;52.108;5.044;2023-11-18T07:14:08;45.67;;;22.10;;
48911;SDS011;34722;52.108;5.044;2023-11-18T07:16:34;39.20;;;20.42;;
48911;SDS011;34722;52.108;5.044;2023-11-18T07:19:00;42.22;;;21.60;;
48911;SDS011;34722;52.108;5.044;2023-11-18T07:21:28;58.17;;;24.05;;
48911;SDS011;34722;52.108;5.044;2023-11-18T07:23:54;44.53;;;20.70;;
48911;SDS011;34722;52.108;5.044;2023-11-18T07:26:20;44.22;;;22.45;;
48911;SDS011;34722;52.108;5.044;2023-11-18T07:28:45;48.30;;;22.70;;
48911;SDS011;34722;52.108;5.044;2023-11-18T07:31:11;43.80;;;22.10;;
48911;SDS011;34722;52.108;5.044;2023-11-18T07:33:37;43.70;;;20.98;;
48911;SDS011;34722;52.108;5.044;2023-11-18T07:36:03;47.33;;;21.42;;
48911;SDS011;34722;52.108;5.044;2023-11-18T07:38:31;41.90;;;21.60;;
48911;SDS011;34722;52.108;5.044;2023-11-18T07:40:58;44.95;;;21.45;;
48911;SDS011;34722;52.108;5.044;2023-11-18T07:43:23;45.38;;;21.73;;
48911;SDS011;34722;52.108;5.044;2023-11-18T07:45:49;47.55;;;21.83;;
48911;SDS011;34722;52.108;5.044;2023-11-18T07:48:17;42.70;;;21.23;;
48911;SDS011;34722;52.108;5.044;2023-11-18T07:50:43;40.95;;;21.63;;
48911;SDS011;34722;52.108;5.044;2023-11-18T07:53:15;45.08;;;21.55;;
48911;SDS011;34722;52.108;5.044;2023-11-18T07:55:41;44.35;;;22.98;;
48911;SDS011;34722;52.108;5.044;2023-11-18T07:58:10;41.95;;;22.20;;
48911;SDS011;34722;52.108;5.044;2023-11-18T08:00:39;46.63;;;22.38;;
48911;SDS011;34722;52.108;5.044;2023-11-18T08:03:10;49.30;;;22.20;;
48911;SDS011;34722;52.108;5.044;2023-11-18T08:05:39;51.58;;;23.45;;
48911;SDS011;34722;52.108;5.044;2023-11-18T08:08:06;46.75;;;23.02;;
48911;SDS011;34722;52.108;5.044;2023-11-18T08:10:33;48.53;;;24.33;;
48911;SDS011;34722;52.108;5.044;2023-11-18T08:13:02;47.55;;;23.23;;
48911;SDS011;34722;52.108;5.044;2023-11-18T08:15:29;64.35;;;25.60;;
48911;SDS011;34722;52.108;5.044;2023-11-18T08:17:56;53.67;;;25.50;;
48911;SDS011;34722;52.108;5.044;2023-11-18T08:20:21;51.00;;;23.67;;
48911;SDS011;34722;52.108;5.044;2023-11-18T08:22:49;56.63;;;26.73;;
48911;SDS011;34722;52.108;5.044;2023-11-18T08:25:15;56.15;;;26.05;;
48911;SDS011;34722;52.108;5.044;2023-11-18T08:27:42;59.10;;;25.85;;
48911;SDS011;34722;52.108;5.044;2023-11-18T08:30:08;58.25;;;25.45;;
48911;SDS011;34722;52.108;5.044;2023-11-18T08:32:37;51.97;;;23.90;;
48911;SDS011;34722;52.108;5.044;2023-11-18T08:35:04;46.10;;;22.70;;
48911;SDS011;34722;52.108;5.044;2023-11-18T08:37:34;43.45;;;23.40;;
48911;SDS011;34722;52.108;5.044;2023-11-18T08:40:07;51.35;;;24.05;;
48911;SDS011;34722;52.108;5.044;2023-11-18T08:42:50;35.40;;;17.58;;
48911;SDS011;34722;52.108;5.044;2023-11-18T08:45:19;43.38;;;23.00;;
48911;SDS011;34722;52.108;5.044;2023-11-18T08:47:54;44.25;;;20.52;;
48911;SDS011;34722;52.108;5.044;2023-11-18T08:50:24;42.78;;;20.50;;
48911;SDS011;34722;52.108;5.044;2023-11-18T08:52:51;46.90;;;21.38;;
48911;SDS011;34722;52.108;5.044;2023-11-18T08:55:29;48.83;;;20.92;;
48911;SDS011;34722;52.108;5.044;2023-11-18T08:58:06;40.60;;;18.45;;
48911;SDS011;34722;52.108;5.044;2023-11-18T09:00:44;43.03;;;20.33;;
48911;SDS011;34722;52.108;5.044;2023-11-18T09:03:17;39.28;;;18.90;;
48911;SDS011;34722;52.108;5.044;2023-11-18T09:05:50;33.75;;;18.73;;
48911;SDS011;34722;52.108;5.044;2023-11-18T09:08:44;28.48;;;14.95;;
48911;SDS011;34722;52.108;5.044;2023-11-18T09:11:13;41.05;;;20.35;;
48911;SDS011;34722;52.108;5.044;2023-11-18T09:13:44;37.10;;;17.58;;
48911;SDS011;34722;52.108;5.044;2023-11-18T09:16:22;36.03;;;16.50;;
48911;SDS011;34722;52.108;5.044;2023-11-18T09:21:18;39.03;;;17.08;;
48911;SDS011;34722;52.108;5.044;2023-11-18T09:23:49;27.83;;;14.98;;
48911;SDS011;34722;52.108;5.044;2023-11-18T09:26:16;35.47;;;15.63;;
48911;SDS011;34722;52.108;5.044;2023-11-18T09:28:42;31.88;;;14.38;;
48911;SDS011;34722;52.108;5.044;2023-11-18T09:31:11;39.95;;;15.90;;
48911;SDS011;34722;52.108;5.044;2023-11-18T09:33:37;29.40;;;14.27;;
48911;SDS011;34722;52.108;5.044;2023-11-18T09:36:05;30.35;;;14.90;;
48911;SDS011;34722;52.108;5.044;2023-11-18T09:38:36;35.53;;;14.20;;
48911;SDS011;34722;52.108;5.044;2023-11-18T09:41:05;42.55;;;13.68;;
48911;SDS011;34722;52.108;5.044;2023-11-18T09:43:43;30.27;;;13.65;;
48911;SDS011;34722;52.108;5.044;2023-11-18T09:46:22;31.20;;;14.32;;
48911;SDS011;34722;52.108;5.044;2023-11-18T09:48:52;29.92;;;13.25;;
48911;SDS011;34722;52.108;5.044;2023-11-18T09:51:27;30.13;;;13.80;;
48911;SDS011;34722;52.108;5.044;2023-11-18T09:54:10;24.48;;;13.13;;
48911;SDS011;34722;52.108;5.044;2023-11-18T09:57:04;32.25;;;13.68;;
48911;SDS011;34722;52.108;5.044;2023-11-18T10:02:20;24.92;;;11.98;;
48911;SDS011;34722;52.108;5.044;2023-11-18T10:04:48;30.02;;;12.93;;
48911;SDS011;34722;52.108;5.044;2023-11-18T10:07:22;27.17;;;12.00;;
48911;SDS011;34722;52.108;5.044;2023-11-18T10:09:57;20.08;;;11.13;;
48911;SDS011;34722;52.108;5.044;2023-11-18T10:12:24;21.20;;;10.30;;
48911;SDS011;34722;52.108;5.044;2023-11-18T10:14:52;26.98;;;11.30;;
48911;SDS011;34722;52.108;5.044;2023-11-18T10:17:19;24.85;;;11.02;;
48911;SDS011;34722;52.108;5.044;2023-11-18T10:19:53;16.45;;;9.68;;
48911;SDS011;34722;52.108;5.044;2023-11-18T10:22:37;24.08;;;11.05;;
48911;SDS011;34722;52.108;5.044;2023-11-18T10:25:03;21.80;;;10.23;;
48911;SDS011;34722;52.108;5.044;2023-11-18T10:27:31;24.05;;;9.52;;
48911;SDS011;34722;52.108;5.044;2023-11-18T10:29:57;22.50;;;10.18;;
48911;SDS011;34722;52.108;5.044;2023-11-18T10:32:27;24.00;;;10.10;;
48911;SDS011;34722;52.108;5.044;2023-11-18T10:34:56;21.83;;;9.40;;
48911;SDS011;34722;52.108;5.044;2023-11-18T10:37:23;20.30;;;9.00;;
48911;SDS011;34722;52.108;5.044;2023-11-18T10:39:55;19.95;;;8.82;;
48911;SDS011;34722;52.108;5.044;2023-11-18T10:42:22;19.52;;;9.95;;
48911;SDS011;34722;52.108;5.044;2023-11-18T10:44:58;17.02;;;8.35;;
48911;SDS011;34722;52.108;5.044;2023-11-18T10:47:28;18.60;;;8.02;;
48911;SDS011;34722;52.108;5.044;2023-11-18T10:49:57;18.25;;;8.73;;
48911;SDS011;34722;52.108;5.044;2023-11-18T10:52:24;17.45;;;8.20;;
48911;SDS011;34722;52.108;5.044;2023-11-18T10:54:56;19.48;;;8.98;;
48911;SDS011;34722;52.108;5.044;2023-11-18T10:57:22;17.33;;;8.43;;
48911;SDS011;34722;52.108;5.044;2023-11-18T11:00:02;18.92;;;9.13;;
48911;SDS011;34722;52.108;5.044;2023-11-18T11:02:32;11.77;;;7.60;;
48911;SDS011;34722;52.108;5.044;2023-11-18T11:05:04;19.42;;;9.10;;
48911;SDS011;34722;52.108;5.044;2023-11-18T11:07:32;20.35;;;8.50;;
48911;SDS011;34722;52.108;5.044;2023-11-18T11:10:02;17.95;;;10.45;;
48911;SDS011;34722;52.108;5.044;2023-11-18T11:12:33;28.35;;;10.02;;
48911;SDS011;34722;52.108;5.044;2023-11-18T11:15:17;16.80;;;8.73;;
48911;SDS011;34722;52.108;5.044;2023-11-18T11:17:53;33.58;;;10.63;;
48911;SDS011;34722;52.108;5.044;2023-11-18T11:20:29;22.70;;;8.68;;
48911;SDS011;34722;52.108;5.044;2023-11-18T11:25:55;15.07;;;7.82;;
48911;SDS011;34722;52.108;5.044;2023-11-18T11:28:37;18.17;;;8.88;;
48911;SDS011;34722;52.108;5.044;2023-11-18T11:33:43;21.38;;;9.80;;
48911;SDS011;34722;52.108;5.044;2023-11-18T11:36:20;29.63;;;9.30;;
48911;SDS011;34722;52.108;5.044;2023-11-18T11:38:52;17.67;;;9.45;;
48911;SDS011;34722;52.108;5.044;2023-11-18T11:41:21;19.27;;;9.05;;
48911;SDS011;34722;52.108;5.044;2023-11-18T11:43:51;14.68;;;8.45;;
48911;SDS011;34722;52.108;5.044;2023-11-18T11:46:24;18.35;;;8.82;;
48911;SDS011;34722;52.108;5.044;2023-11-18T11:48:54;18.83;;;8.77;;
48911;SDS011;34722;52.108;5.044;2023-11-18T11:54:15;21.08;;;9.07;;
48911;SDS011;34722;52.108;5.044;2023-11-18T11:56:46;19.10;;;8.85;;
48911;SDS011;34722;52.108;5.044;2023-11-18T11:59:36;18.60;;;9.88;;
48911;SDS011;34722;52.108;5.044;2023-11-18T12:02:21;18.30;;;8.48;;
48911;SDS011;34722;52.108;5.044;2023-11-18T12:04:54;18.23;;;8.93;;
48911;SDS011;34722;52.108;5.044;2023-11-18T12:07:23;18.55;;;8.38;;
48911;SDS011;34722;52.108;5.044;2023-11-18T12:09:55;22.02;;;8.55;;
48911;SDS011;34722;52.108;5.044;2023-11-18T12:12:23;28.67;;;9.88;;
48911;SDS011;34722;52.108;5.044;2023-11-18T12:14:53;16.05;;;9.52;;
48911;SDS011;34722;52.108;5.044;2023-11-18T12:23:22;18.25;;;7.60;;
48911;SDS011;34722;52.108;5.044;2023-11-18T12:25:49;13.73;;;8.88;;
48911;SDS011;34722;52.108;5.044;2023-11-18T12:28:20;16.10;;;7.13;;
48911;SDS011;34722;52.108;5.044;2023-11-18T12:30:52;17.42;;;8.88;;
48911;SDS011;34722;52.108;5.044;2023-11-18T12:33:52;17.88;;;7.40;;
48911;SDS011;34722;52.108;5.044;2023-11-18T12:42:03;18.77;;;8.30;;
48911;SDS011;34722;52.108;5.044;2023-11-18T12:45:01;19.58;;;7.25;;
48911;SDS011;34722;52.108;5.044;2023-11-18T12:47:45;11.82;;;6.72;;
48911;SDS011;34722;52.108;5.044;2023-11-18T12:50:14;15.45;;;7.35;;
48911;SDS011;34722;52.108;5.044;2023-11-18T12:52:51;13.50;;;7.10;;
48911;SDS011;34722;52.108;5.044;2023-11-18T12:55:17;9.40;;;5.40;;
48911;SDS011;34722;52.108;5.044;2023-11-18T12:57:49;16.35;;;6.43;;
48911;SDS011;34722;52.108;5.044;2023-11-18T13:00:16;14.63;;;6.00;;
48911;SDS011;34722;52.108;5.044;2023-11-18T13:02:55;18.23;;;6.18;;
48911;SDS011;34722;52.108;5.044;2023-11-18T13:05:22;15.15;;;6.00;;
48911;SDS011;34722;52.108;5.044;2023-11-18T13:07:49;14.15;;;5.60;;
48911;SDS011;34722;52.108;5.044;2023-11-18T13:10:16;9.50;;;4.70;;
48911;SDS011;34722;52.108;5.044;2023-11-18T13:12:42;9.98;;;5.80;;
48911;SDS011;34722;52.108;5.044;2023-11-18T13:15:10;8.98;;;5.03;;
48911;SDS011;34722;52.108;5.044;2023-11-18T13:17:36;10.95;;;5.10;;
48911;SDS011;34722;52.108;5.044;2023-11-18T13:20:14;10.23;;;4.63;;
48911;SDS011;34722;52.108;5.044;2023-11-18T13:22:42;6.25;;;4.50;;
48911;SDS011;34722;52.108;5.044;2023-11-18T13:25:08;9.85;;;4.07;;
48911;SDS011;34722;52.108;5.044;2023-11-18T13:27:34;11.75;;;5.95;;
48911;SDS011;34722;52.108;5.044;2023-11-18T13:30:01;8.98;;;4.03;;
48911;SDS011;34722;52.108;5.044;2023-11-18T13:32:28;7.00;;;3.97;;
48911;SDS011;34722;52.108;5.044;2023-11-18T13:34:54;9.00;;;3.92;;
48911;SDS011;34722;52.108;5.044;2023-11-18T13:37:20;4.72;;;3.72;;
48911;SDS011;34722;52.108;5.044;2023-11-18T13:39:54;5.18;;;3.97;;
48911;SDS011;34722;52.108;5.044;2023-11-18T13:42:20;10.13;;;4.05;;
48911;SDS011;34722;52.108;5.044;2023-11-18T13:44:48;7.13;;;3.80;;
48911;SDS011;34722;52.108;5.044;2023-11-18T13:47:18;6.60;;;3.95;;
48911;SDS011;34722;52.108;5.044;2023-11-18T13:49:44;7.70;;;3.58;;
48911;SDS011;34722;52.108;5.044;2023-11-18T13:52:12;4.50;;;3.42;;
48911;SDS011;34722;52.108;5.044;2023-11-18T13:54:40;5.10;;;3.83;;
48911;SDS011;34722;52.108;5.044;2023-11-18T13:57:09;5.28;;;4.00;;
48911;SDS011;34722;52.108;5.044;2023-11-18T13:59:36;5.45;;;4.05;;
48911;SDS011;34722;52.108;5.044;2023-11-18T14:02:03;4.57;;;3.85;;
48911;SDS011;34722;52.108;5.044;2023-11-18T14:04:30;9.05;;;4.55;;
48911;SDS011;34722;52.108;5.044;2023-11-18T14:07:01;6.13;;;4.25;;
48911;SDS011;34722;52.108;5.044;2023-11-18T14:09:30;6.65;;;3.53;;
48911;SDS011;34722;52.108;5.044;2023-11-18T14:12:05;7.10;;;4.28;;
48911;SDS011;34722;52.108;5.044;2023-11-18T14:14:31;6.72;;;4.10;;
48911;SDS011;34722;52.108;5.044;2023-11-18T14:16:57;4.82;;;4.10;;
48911;SDS011;34722;52.108;5.044;2023-11-18T14:19:27;8.00;;;4.53;;
48911;SDS011;34722;52.108;5.044;2023-11-18T14:21:53;6.97;;;4.80;;
48911;SDS011;34722;52.108;5.044;2023-11-18T14:24:19;9.77;;;4.97;;
48911;SDS011;34722;52.108;5.044;2023-11-18T14:26:44;4.90;;;4.32;;
48911;SDS011;34722;52.108;5.044;2023-11-18T14:29:10;6.80;;;4.32;;
48911;SDS011;34722;52.108;5.044;2023-11-18T14:31:39;4.93;;;3.90;;
48911;SDS011;34722;52.108;5.044;2023-11-18T14:34:04;7.43;;;4.07;;
48911;SDS011;34722;52.108;5.044;2023-11-18T14:36:30;4.90;;;4.30;;
48911;SDS011;34722;52.108;5.044;2023-11-18T14:38:56;5.38;;;3.90;;
48911;SDS011;34722;52.108;5.044;2023-11-18T14:41:23;5.32;;;4.13;;
48911;SDS011;34722;52.108;5.044;2023-11-18T14:43:54;6.70;;;4.25;;
48911;SDS011;34722;52.108;5.044;2023-11-18T14:46:20;5.03;;;4.07;;
48911;SDS011;34722;52.108;5.044;2023-11-18T14:48:46;4.30;;;3.60;;
48911;SDS011;34722;52.108;5.044;2023-11-18T14:51:12;4.60;;;4.00;;
48911;SDS011;34722;52.108;5.044;2023-11-18T14:53:37;6.35;;;4.15;;
48911;SDS011;34722;52.108;5.044;2023-11-18T14:56:04;8.32;;;5.20;;
48911;SDS011;34722;52.108;5.044;2023-11-18T14:58:31;14.77;;;4.65;;
48911;SDS011;34722;52.108;5.044;2023-11-18T15:01:03;5.00;;;4.50;;